sensor_id;sensor_type;location;lat;lon;timestamp;P1;durP1;ratioP1;P2;durP2;ratioP2
22973;SDS011;11653;50.848;4.584;2023-08-08T00:00:23;6.70;;;2.53;;
22973;SDS011;11653;50.848;4.584;2023-08-08T00:02:48;8.93;;;2.90;;
22973;SDS011;11653;50.848;4.584;2023-08-08T00:05:14;7.47;;;3.20;;
22973;SDS011;11653;50.848;4.584;2023-08-08T00:07:39;6.73;;;3.00;;
22973;SDS011;11653;50.848;4.584;2023-08-08T00:10:05;13.60;;;3.17;;
22973;SDS011;11653;50.848;4.584;2023-08-08T00:12:31;10.07;;;3.10;;
22973;SDS011;11653;50.848;4.584;2023-08-08T00:14:57;10.70;;;3.13;;
22973;SDS011;11653;50.848;4.584;2023-08-08T00:17:23;6.93;;;3.13;;
22973;SDS011;11653;50.848;4.584;2023-08-08T00:19:48;4.73;;;2.80;;
22973;SDS011;11653;50.848;4.584;2023-08-08T00:22:14;6.97;;;2.90;;
22973;SDS011;11653;50.848;4.584;2023-08-08T00:24:40;8.30;;;3.30;;
22973;SDS011;11653;50.848;4.584;2023-08-08T00:27:05;8.33;;;3.00;;
22973;SDS011;11653;50.848;4.584;2023-08-08T00:29:31;9.80;;;3.67;;
22973;SDS011;11653;50.848;4.584;2023-08-08T00:31:56;8.50;;;2.87;;
22973;SDS011;11653;50.848;4.584;2023-08-08T00:34:22;10.33;;;3.17;;
22973;SDS011;11653;50.848;4.584;2023-08-08T00:36:48;7.13;;;2.83;;
22973;SDS011;11653;50.848;4.584;2023-08-08T00:39:13;11.77;;;3.27;;
22973;SDS011;11653;50.848;4.584;2023-08-08T00:41:39;10.63;;;3.93;;
22973;SDS011;11653;50.848;4.584;2023-08-08T00:44:04;13.53;;;4.17;;
22973;SDS011;11653;50.848;4.584;2023-08-08T00:46:30;8.97;;;3.30;;
22973;SDS011;11653;50.848;4.584;2023-08-08T00:48:56;7.00;;;3.13;;
22973;SDS011;11653;50.848;4.584;2023-08-08T00:51:22;10.67;;;3.10;;
22973;SDS011;11653;50.848;4.584;2023-08-08T00:53:49;10.23;;;3.30;;
22973;SDS011;11653;50.848;4.584;2023-08-08T00:56:15;13.47;;;3.47;;
22973;SDS011;11653;50.848;4.584;2023-08-08T00:58:42;10.20;;;3.60;;
22973;SDS011;11653;50.848;4.584;2023-08-08T01:01:11;5.97;;;3.30;;
22973;SDS011;11653;50.848;4.584;2023-08-08T01:03:37;7.77;;;3.40;;
22973;SDS011;11653;50.848;4.584;2023-08-08T01:06:05;9.37;;;3.83;;
22973;SDS011;11653;50.848;4.584;2023-08-08T01:08:39;8.27;;;4.00;;
22973;SDS011;11653;50.848;4.584;2023-08-08T01:11:12;9.07;;;3.77;;
22973;SDS011;11653;50.848;4.584;2023-08-08T01:13:40;10.30;;;3.67;;
22973;SDS011;11653;50.848;4.584;2023-08-08T01:16:08;9.37;;;3.80;;
22973;SDS011;11653;50.848;4.584;2023-08-08T01:18:35;11.90;;;4.27;;
22973;SDS011;11653;50.848;4.584;2023-08-08T01:21:03;11.10;;;3.67;;
22973;SDS011;11653;50.848;4.584;2023-08-08T01:26:11;12.33;;;4.60;;
22973;SDS011;11653;50.848;4.584;2023-08-08T01:28:38;12.20;;;4.20;;
22973;SDS011;11653;50.848;4.584;2023-08-08T01:31:04;11.23;;;4.30;;
22973;SDS011;11653;50.848;4.584;2023-08-08T01:33:30;10.57;;;3.90;;
22973;SDS011;11653;50.848;4.584;2023-08-08T01:35:58;13.87;;;4.33;;
22973;SDS011;11653;50.848;4.584;2023-08-08T01:38:31;13.10;;;4.30;;
22973;SDS011;11653;50.848;4.584;2023-08-08T01:40:58;13.37;;;4.50;;
22973;SDS011;11653;50.848;4.584;2023-08-08T01:43:25;9.17;;;4.40;;
22973;SDS011;11653;50.848;4.584;2023-08-08T01:45:52;9.27;;;4.67;;
22973;SDS011;11653;50.848;4.584;2023-08-08T01:48:17;17.73;;;4.60;;
22973;SDS011;11653;50.848;4.584;2023-08-08T01:50:43;18.73;;;4.60;;
22973;SDS011;11653;50.848;4.584;2023-08-08T01:53:09;15.10;;;4.47;;
22973;SDS011;11653;50.848;4.584;2023-08-08T01:55:35;12.87;;;4.93;;
22973;SDS011;11653;50.848;4.584;2023-08-08T01:58:00;9.73;;;4.30;;
22973;SDS011;11653;50.848;4.584;2023-08-08T02:00:26;17.00;;;4.90;;
22973;SDS011;11653;50.848;4.584;2023-08-08T02:02:52;12.43;;;4.70;;
22973;SDS011;11653;50.848;4.584;2023-08-08T02:05:17;14.60;;;4.80;;
22973;SDS011;11653;50.848;4.584;2023-08-08T02:07:43;13.00;;;4.30;;
22973;SDS011;11653;50.848;4.584;2023-08-08T02:10:09;14.60;;;4.40;;
22973;SDS011;11653;50.848;4.584;2023-08-08T02:12:35;11.77;;;4.57;;
22973;SDS011;11653;50.848;4.584;2023-08-08T02:15:00;16.00;;;4.90;;
22973;SDS011;11653;50.848;4.584;2023-08-08T02:17:27;12.63;;;4.03;;
22973;SDS011;11653;50.848;4.584;2023-08-08T02:19:54;16.20;;;4.27;;
22973;SDS011;11653;50.848;4.584;2023-08-08T02:22:19;14.50;;;4.60;;
22973;SDS011;11653;50.848;4.584;2023-08-08T02:24:45;13.13;;;4.60;;
22973;SDS011;11653;50.848;4.584;2023-08-08T02:27:11;14.77;;;4.23;;
22973;SDS011;11653;50.848;4.584;2023-08-08T02:29:37;15.43;;;5.03;;
22973;SDS011;11653;50.848;4.584;2023-08-08T02:32:03;16.83;;;4.97;;
22973;SDS011;11653;50.848;4.584;2023-08-08T02:34:28;15.60;;;4.73;;
22973;SDS011;11653;50.848;4.584;2023-08-08T02:36:54;12.47;;;5.23;;
22973;SDS011;11653;50.848;4.584;2023-08-08T02:39:20;17.33;;;5.17;;
22973;SDS011;11653;50.848;4.584;2023-08-08T02:41:45;16.63;;;5.30;;
22973;SDS011;11653;50.848;4.584;2023-08-08T02:44:11;11.67;;;4.73;;
22973;SDS011;11653;50.848;4.584;2023-08-08T02:46:36;11.63;;;4.37;;
22973;SDS011;11653;50.848;4.584;2023-08-08T02:49:03;15.90;;;5.93;;
22973;SDS011;11653;50.848;4.584;2023-08-08T02:51:29;14.40;;;4.80;;
22973;SDS011;11653;50.848;4.584;2023-08-08T02:53:55;13.87;;;4.83;;
22973;SDS011;11653;50.848;4.584;2023-08-08T02:56:21;30.23;;;6.07;;
22973;SDS011;11653;50.848;4.584;2023-08-08T02:58:47;12.63;;;4.77;;
22973;SDS011;11653;50.848;4.584;2023-08-08T03:01:12;21.03;;;4.97;;
22973;SDS011;11653;50.848;4.584;2023-08-08T03:03:40;14.60;;;4.77;;
22973;SDS011;11653;50.848;4.584;2023-08-08T03:06:05;15.30;;;4.80;;
22973;SDS011;11653;50.848;4.584;2023-08-08T03:08:31;14.97;;;5.27;;
22973;SDS011;11653;50.848;4.584;2023-08-08T03:10:57;16.77;;;5.87;;
22973;SDS011;11653;50.848;4.584;2023-08-08T03:13:22;12.50;;;5.03;;
22973;SDS011;11653;50.848;4.584;2023-08-08T03:15:48;16.63;;;5.07;;
22973;SDS011;11653;50.848;4.584;2023-08-08T03:18:14;13.83;;;4.80;;
22973;SDS011;11653;50.848;4.584;2023-08-08T03:20:39;16.50;;;5.27;;
22973;SDS011;11653;50.848;4.584;2023-08-08T03:23:05;15.50;;;5.47;;
22973;SDS011;11653;50.848;4.584;2023-08-08T03:25:31;17.33;;;5.13;;
22973;SDS011;11653;50.848;4.584;2023-08-08T03:27:56;12.57;;;5.40;;
22973;SDS011;11653;50.848;4.584;2023-08-08T03:30:22;14.43;;;5.80;;
22973;SDS011;11653;50.848;4.584;2023-08-08T03:32:48;17.80;;;5.47;;
22973;SDS011;11653;50.848;4.584;2023-08-08T03:35:13;18.20;;;6.57;;
22973;SDS011;11653;50.848;4.584;2023-08-08T03:37:40;14.53;;;5.60;;
22973;SDS011;11653;50.848;4.584;2023-08-08T03:40:06;26.43;;;6.40;;
22973;SDS011;11653;50.848;4.584;2023-08-08T03:42:33;16.97;;;6.00;;
22973;SDS011;11653;50.848;4.584;2023-08-08T03:44:59;18.17;;;6.17;;
22973;SDS011;11653;50.848;4.584;2023-08-08T03:47:25;17.10;;;6.10;;
22973;SDS011;11653;50.848;4.584;2023-08-08T03:49:50;21.53;;;6.50;;
22973;SDS011;11653;50.848;4.584;2023-08-08T03:52:20;22.57;;;7.13;;
22973;SDS011;11653;50.848;4.584;2023-08-08T03:54:46;24.87;;;7.87;;
22973;SDS011;11653;50.848;4.584;2023-08-08T03:57:12;21.60;;;7.60;;
22973;SDS011;11653;50.848;4.584;2023-08-08T03:59:37;18.27;;;6.70;;
22973;SDS011;11653;50.848;4.584;2023-08-08T04:02:03;21.10;;;7.63;;
22973;SDS011;11653;50.848;4.584;2023-08-08T04:04:29;26.20;;;7.07;;
22973;SDS011;11653;50.848;4.584;2023-08-08T04:06:55;20.17;;;7.70;;
22973;SDS011;11653;50.848;4.584;2023-08-08T04:09:20;15.00;;;7.37;;
22973;SDS011;11653;50.848;4.584;2023-08-08T04:11:46;27.07;;;8.53;;
22973;SDS011;11653;50.848;4.584;2023-08-08T04:14:12;19.10;;;7.23;;
22973;SDS011;11653;50.848;4.584;2023-08-08T04:16:38;17.37;;;7.60;;
22973;SDS011;11653;50.848;4.584;2023-08-08T04:19:04;22.80;;;7.73;;
22973;SDS011;11653;50.848;4.584;2023-08-08T04:21:30;19.53;;;7.37;;
22973;SDS011;11653;50.848;4.584;2023-08-08T04:23:57;19.40;;;7.37;;
22973;SDS011;11653;50.848;4.584;2023-08-08T04:26:23;16.27;;;7.37;;
22973;SDS011;11653;50.848;4.584;2023-08-08T04:28:49;18.37;;;8.10;;
22973;SDS011;11653;50.848;4.584;2023-08-08T04:31:14;16.10;;;7.67;;
22973;SDS011;11653;50.848;4.584;2023-08-08T04:33:40;18.97;;;7.27;;
22973;SDS011;11653;50.848;4.584;2023-08-08T04:36:06;20.90;;;7.27;;
22973;SDS011;11653;50.848;4.584;2023-08-08T04:38:31;24.37;;;7.30;;
22973;SDS011;11653;50.848;4.584;2023-08-08T04:40:57;27.30;;;8.03;;
22973;SDS011;11653;50.848;4.584;2023-08-08T04:43:23;22.80;;;7.67;;
22973;SDS011;11653;50.848;4.584;2023-08-08T04:45:48;26.53;;;8.73;;
22973;SDS011;11653;50.848;4.584;2023-08-08T04:48:14;24.67;;;7.40;;
22973;SDS011;11653;50.848;4.584;2023-08-08T04:50:40;18.63;;;6.60;;
22973;SDS011;11653;50.848;4.584;2023-08-08T04:53:06;20.00;;;6.70;;
22973;SDS011;11653;50.848;4.584;2023-08-08T04:55:31;16.23;;;6.60;;
22973;SDS011;11653;50.848;4.584;2023-08-08T04:57:57;18.73;;;5.93;;
22973;SDS011;11653;50.848;4.584;2023-08-08T05:00:23;18.00;;;6.23;;
22973;SDS011;11653;50.848;4.584;2023-08-08T05:02:50;27.60;;;7.30;;
22973;SDS011;11653;50.848;4.584;2023-08-08T05:05:16;20.40;;;6.03;;
22973;SDS011;11653;50.848;4.584;2023-08-08T05:07:42;18.47;;;5.50;;
22973;SDS011;11653;50.848;4.584;2023-08-08T05:10:07;17.90;;;6.03;;
22973;SDS011;11653;50.848;4.584;2023-08-08T05:12:33;21.83;;;6.43;;
22973;SDS011;11653;50.848;4.584;2023-08-08T05:14:58;17.17;;;5.37;;
22973;SDS011;11653;50.848;4.584;2023-08-08T05:17:24;16.20;;;5.13;;
22973;SDS011;11653;50.848;4.584;2023-08-08T05:19:51;19.07;;;5.83;;
22973;SDS011;11653;50.848;4.584;2023-08-08T05:22:17;18.67;;;4.73;;
22973;SDS011;11653;50.848;4.584;2023-08-08T05:24:42;16.43;;;4.47;;
22973;SDS011;11653;50.848;4.584;2023-08-08T05:27:08;12.00;;;4.60;;
22973;SDS011;11653;50.848;4.584;2023-08-08T05:29:34;14.83;;;4.97;;
22973;SDS011;11653;50.848;4.584;2023-08-08T05:32:03;14.87;;;3.97;;
22973;SDS011;11653;50.848;4.584;2023-08-08T05:34:31;13.17;;;4.20;;
22973;SDS011;11653;50.848;4.584;2023-08-08T05:36:57;8.63;;;3.73;;
22973;SDS011;11653;50.848;4.584;2023-08-08T05:39:23;15.77;;;3.97;;
22973;SDS011;11653;50.848;4.584;2023-08-08T05:41:49;11.73;;;3.70;;
22973;SDS011;11653;50.848;4.584;2023-08-08T05:44:15;11.10;;;4.13;;
22973;SDS011;11653;50.848;4.584;2023-08-08T05:46:40;7.80;;;3.80;;
22973;SDS011;11653;50.848;4.584;2023-08-08T05:49:07;8.97;;;3.40;;
22973;SDS011;11653;50.848;4.584;2023-08-08T05:51:33;18.23;;;3.90;;
22973;SDS011;11653;50.848;4.584;2023-08-08T05:53:59;15.33;;;4.30;;
22973;SDS011;11653;50.848;4.584;2023-08-08T05:56:25;16.67;;;4.33;;
22973;SDS011;11653;50.848;4.584;2023-08-08T05:58:52;15.13;;;3.97;;
22973;SDS011;11653;50.848;4.584;2023-08-08T06:01:18;15.23;;;3.90;;
22973;SDS011;11653;50.848;4.584;2023-08-08T06:03:44;13.63;;;4.20;;
22973;SDS011;11653;50.848;4.584;2023-08-08T06:06:09;12.53;;;3.30;;
22973;SDS011;11653;50.848;4.584;2023-08-08T06:08:35;13.63;;;3.33;;
22973;SDS011;11653;50.848;4.584;2023-08-08T06:11:01;7.37;;;2.80;;
22973;SDS011;11653;50.848;4.584;2023-08-08T06:13:27;18.13;;;3.90;;
22973;SDS011;11653;50.848;4.584;2023-08-08T06:15:52;16.43;;;3.97;;
22973;SDS011;11653;50.848;4.584;2023-08-08T06:18:18;14.87;;;3.73;;
22973;SDS011;11653;50.848;4.584;2023-08-08T06:20:44;20.37;;;4.57;;
22973;SDS011;11653;50.848;4.584;2023-08-08T06:23:10;12.17;;;3.40;;
22973;SDS011;11653;50.848;4.584;2023-08-08T06:25:36;10.90;;;3.50;;
22973;SDS011;11653;50.848;4.584;2023-08-08T06:28:03;8.63;;;2.97;;
22973;SDS011;11653;50.848;4.584;2023-08-08T06:30:29;11.63;;;3.20;;
22973;SDS011;11653;50.848;4.584;2023-08-08T06:32:55;11.33;;;3.27;;
22973;SDS011;11653;50.848;4.584;2023-08-08T06:35:20;8.87;;;2.93;;
22973;SDS011;11653;50.848;4.584;2023-08-08T06:37:46;10.70;;;3.20;;
22973;SDS011;11653;50.848;4.584;2023-08-08T06:40:12;12.37;;;3.23;;
22973;SDS011;11653;50.848;4.584;2023-08-08T06:42:38;13.80;;;3.20;;
22973;SDS011;11653;50.848;4.584;2023-08-08T06:45:04;10.13;;;3.13;;
22973;SDS011;11653;50.848;4.584;2023-08-08T06:47:30;11.80;;;3.00;;
22973;SDS011;11653;50.848;4.584;2023-08-08T06:49:56;12.53;;;3.27;;
22973;SDS011;11653;50.848;4.584;2023-08-08T06:52:22;8.47;;;2.60;;
22973;SDS011;11653;50.848;4.584;2023-08-08T06:54:47;10.53;;;2.60;;
22973;SDS011;11653;50.848;4.584;2023-08-08T06:57:13;13.13;;;2.93;;
22973;SDS011;11653;50.848;4.584;2023-08-08T06:59:38;13.17;;;3.07;;
22973;SDS011;11653;50.848;4.584;2023-08-08T07:02:04;12.67;;;2.87;;
22973;SDS011;11653;50.848;4.584;2023-08-08T07:04:30;9.43;;;2.70;;
22973;SDS011;11653;50.848;4.584;2023-08-08T07:06:56;9.53;;;2.90;;
22973;SDS011;11653;50.848;4.584;2023-08-08T07:09:22;12.30;;;3.27;;
22973;SDS011;11653;50.848;4.584;2023-08-08T07:11:48;9.47;;;2.60;;
22973;SDS011;11653;50.848;4.584;2023-08-08T07:14:13;12.73;;;3.53;;
22973;SDS011;11653;50.848;4.584;2023-08-08T07:16:39;12.27;;;2.60;;
22973;SDS011;11653;50.848;4.584;2023-08-08T07:19:04;14.03;;;3.33;;
22973;SDS011;11653;50.848;4.584;2023-08-08T07:21:31;11.73;;;3.30;;
22973;SDS011;11653;50.848;4.584;2023-08-08T07:23:56;9.10;;;2.70;;
22973;SDS011;11653;50.848;4.584;2023-08-08T07:26:22;10.47;;;4.10;;
22973;SDS011;11653;50.848;4.584;2023-08-08T07:28:48;10.83;;;3.83;;
22973;SDS011;11653;50.848;4.584;2023-08-08T07:31:14;11.83;;;3.20;;
22973;SDS011;11653;50.848;4.584;2023-08-08T07:33:39;15.70;;;3.37;;
22973;SDS011;11653;50.848;4.584;2023-08-08T07:36:05;10.03;;;3.10;;
22973;SDS011;11653;50.848;4.584;2023-08-08T07:38:30;12.23;;;3.60;;
22973;SDS011;11653;50.848;4.584;2023-08-08T07:40:58;10.07;;;4.03;;
22973;SDS011;11653;50.848;4.584;2023-08-08T07:43:23;10.30;;;3.73;;
22973;SDS011;11653;50.848;4.584;2023-08-08T07:45:49;12.23;;;3.73;;
22973;SDS011;11653;50.848;4.584;2023-08-08T07:48:15;11.17;;;4.60;;
22973;SDS011;11653;50.848;4.584;2023-08-08T07:50:40;12.20;;;4.07;;
22973;SDS011;11653;50.848;4.584;2023-08-08T07:53:06;15.27;;;3.73;;
22973;SDS011;11653;50.848;4.584;2023-08-08T07:55:32;12.70;;;4.47;;
22973;SDS011;11653;50.848;4.584;2023-08-08T07:57:58;9.77;;;3.97;;
22973;SDS011;11653;50.848;4.584;2023-08-08T08:00:23;13.40;;;8.00;;
22973;SDS011;11653;50.848;4.584;2023-08-08T08:02:49;10.73;;;4.20;;
22973;SDS011;11653;50.848;4.584;2023-08-08T08:05:15;11.53;;;3.47;;
22973;SDS011;11653;50.848;4.584;2023-08-08T08:07:41;7.10;;;3.60;;
22973;SDS011;11653;50.848;4.584;2023-08-08T08:10:08;7.97;;;3.80;;
22973;SDS011;11653;50.848;4.584;2023-08-08T08:12:35;8.60;;;3.90;;
22973;SDS011;11653;50.848;4.584;2023-08-08T08:15:02;9.97;;;4.17;;
22973;SDS011;11653;50.848;4.584;2023-08-08T08:17:28;11.07;;;4.27;;
22973;SDS011;11653;50.848;4.584;2023-08-08T08:19:54;14.20;;;4.27;;
22973;SDS011;11653;50.848;4.584;2023-08-08T08:22:20;10.10;;;4.20;;
22973;SDS011;11653;50.848;4.584;2023-08-08T08:24:45;10.53;;;4.50;;
22973;SDS011;11653;50.848;4.584;2023-08-08T08:27:11;7.97;;;3.70;;
22973;SDS011;11653;50.848;4.584;2023-08-08T08:29:37;12.17;;;3.60;;
22973;SDS011;11653;50.848;4.584;2023-08-08T08:32:03;10.40;;;3.50;;
22973;SDS011;11653;50.848;4.584;2023-08-08T08:34:29;14.33;;;4.00;;
22973;SDS011;11653;50.848;4.584;2023-08-08T08:36:55;8.30;;;3.77;;
22973;SDS011;11653;50.848;4.584;2023-08-08T08:39:21;11.20;;;3.53;;
22973;SDS011;11653;50.848;4.584;2023-08-08T08:41:47;11.07;;;3.53;;
22973;SDS011;11653;50.848;4.584;2023-08-08T08:44:17;6.33;;;2.67;;
22973;SDS011;11653;50.848;4.584;2023-08-08T08:46:46;9.63;;;3.20;;
22973;SDS011;11653;50.848;4.584;2023-08-08T08:49:16;16.23;;;4.07;;
22973;SDS011;11653;50.848;4.584;2023-08-08T08:51:44;12.87;;;3.60;;
22973;SDS011;11653;50.848;4.584;2023-08-08T08:54:10;8.67;;;3.00;;
22973;SDS011;11653;50.848;4.584;2023-08-08T08:56:36;4.67;;;2.73;;
22973;SDS011;11653;50.848;4.584;2023-08-08T08:59:03;8.10;;;3.63;;
22973;SDS011;11653;50.848;4.584;2023-08-08T09:01:30;12.53;;;3.43;;
22973;SDS011;11653;50.848;4.584;2023-08-08T09:03:56;11.07;;;2.87;;
22973;SDS011;11653;50.848;4.584;2023-08-08T09:06:23;9.80;;;3.30;;
22973;SDS011;11653;50.848;4.584;2023-08-08T09:08:49;11.87;;;3.17;;
22973;SDS011;11653;50.848;4.584;2023-08-08T09:11:15;12.03;;;3.10;;
22973;SDS011;11653;50.848;4.584;2023-08-08T09:13:40;9.00;;;2.90;;
22973;SDS011;11653;50.848;4.584;2023-08-08T09:16:07;10.27;;;2.50;;
22973;SDS011;11653;50.848;4.584;2023-08-08T09:18:33;8.60;;;2.50;;
22973;SDS011;11653;50.848;4.584;2023-08-08T09:20:59;7.97;;;2.77;;
22973;SDS011;11653;50.848;4.584;2023-08-08T09:23:25;11.40;;;3.20;;
22973;SDS011;11653;50.848;4.584;2023-08-08T09:25:51;10.70;;;2.93;;
22973;SDS011;11653;50.848;4.584;2023-08-08T09:28:17;9.70;;;3.00;;
22973;SDS011;11653;50.848;4.584;2023-08-08T09:30:43;3.73;;;2.20;;
22973;SDS011;11653;50.848;4.584;2023-08-08T09:33:09;8.03;;;2.30;;
22973;SDS011;11653;50.848;4.584;2023-08-08T09:35:38;10.87;;;2.83;;
22973;SDS011;11653;50.848;4.584;2023-08-08T09:38:04;11.27;;;3.00;;
22973;SDS011;11653;50.848;4.584;2023-08-08T09:40:30;7.63;;;2.37;;
22973;SDS011;11653;50.848;4.584;2023-08-08T09:42:56;6.63;;;2.53;;
22973;SDS011;11653;50.848;4.584;2023-08-08T09:45:23;12.13;;;2.80;;
22973;SDS011;11653;50.848;4.584;2023-08-08T09:47:49;9.70;;;2.37;;
22973;SDS011;11653;50.848;4.584;2023-08-08T09:50:17;11.10;;;2.80;;
22973;SDS011;11653;50.848;4.584;2023-08-08T09:52:45;6.43;;;2.47;;
22973;SDS011;11653;50.848;4.584;2023-08-08T09:55:12;5.23;;;2.27;;
22973;SDS011;11653;50.848;4.584;2023-08-08T09:57:39;11.30;;;2.50;;
22973;SDS011;11653;50.848;4.584;2023-08-08T10:00:05;9.20;;;2.47;;
22973;SDS011;11653;50.848;4.584;2023-08-08T10:02:40;11.17;;;3.10;;
22973;SDS011;11653;50.848;4.584;2023-08-08T10:05:30;7.27;;;2.60;;
22973;SDS011;11653;50.848;4.584;2023-08-08T10:08:00;7.63;;;2.50;;
22973;SDS011;11653;50.848;4.584;2023-08-08T10:10:39;7.43;;;2.70;;
22973;SDS011;11653;50.848;4.584;2023-08-08T10:16:38;6.27;;;2.83;;
22973;SDS011;11653;50.848;4.584;2023-08-08T10:19:04;9.30;;;2.30;;
22973;SDS011;11653;50.848;4.584;2023-08-08T10:21:37;6.73;;;2.53;;
22973;SDS011;11653;50.848;4.584;2023-08-08T10:24:10;7.13;;;2.30;;
22973;SDS011;11653;50.848;4.584;2023-08-08T10:26:57;7.20;;;2.33;;
22973;SDS011;11653;50.848;4.584;2023-08-08T10:29:27;6.00;;;2.03;;
22973;SDS011;11653;50.848;4.584;2023-08-08T10:32:02;10.37;;;2.33;;
22973;SDS011;11653;50.848;4.584;2023-08-08T10:34:40;6.00;;;2.10;;
22973;SDS011;11653;50.848;4.584;2023-08-08T10:37:18;5.63;;;2.40;;
22973;SDS011;11653;50.848;4.584;2023-08-08T10:39:54;9.63;;;2.87;;
22973;SDS011;11653;50.848;4.584;2023-08-08T10:42:24;9.40;;;2.63;;
22973;SDS011;11653;50.848;4.584;2023-08-08T10:44:56;6.53;;;1.90;;
22973;SDS011;11653;50.848;4.584;2023-08-08T10:47:23;5.50;;;1.87;;
22973;SDS011;11653;50.848;4.584;2023-08-08T10:50:06;5.40;;;1.90;;
22973;SDS011;11653;50.848;4.584;2023-08-08T10:57:55;8.00;;;2.60;;
22973;SDS011;11653;50.848;4.584;2023-08-08T11:00:28;4.93;;;2.03;;
22973;SDS011;11653;50.848;4.584;2023-08-08T11:02:56;7.97;;;2.50;;
22973;SDS011;11653;50.848;4.584;2023-08-08T11:05:23;7.67;;;2.10;;
22973;SDS011;11653;50.848;4.584;2023-08-08T11:07:49;29.60;;;18.07;;
22973;SDS011;11653;50.848;4.584;2023-08-08T11:10:15;6.63;;;2.30;;
22973;SDS011;11653;50.848;4.584;2023-08-08T11:12:41;9.43;;;2.83;;
22973;SDS011;11653;50.848;4.584;2023-08-08T11:15:07;9.50;;;2.13;;
22973;SDS011;11653;50.848;4.584;2023-08-08T11:17:34;7.43;;;2.30;;
22973;SDS011;11653;50.848;4.584;2023-08-08T11:19:59;4.37;;;1.90;;
22973;SDS011;11653;50.848;4.584;2023-08-08T11:22:26;2.67;;;1.50;;
22973;SDS011;11653;50.848;4.584;2023-08-08T11:24:52;5.70;;;1.70;;
22973;SDS011;11653;50.848;4.584;2023-08-08T11:27:23;6.87;;;2.20;;
22973;SDS011;11653;50.848;4.584;2023-08-08T11:29:49;2.97;;;1.47;;
22973;SDS011;11653;50.848;4.584;2023-08-08T11:32:15;5.87;;;1.67;;
22973;SDS011;11653;50.848;4.584;2023-08-08T11:34:41;2.37;;;1.30;;
22973;SDS011;11653;50.848;4.584;2023-08-08T11:37:07;7.00;;;1.80;;
22973;SDS011;11653;50.848;4.584;2023-08-08T11:39:34;6.00;;;1.63;;
22973;SDS011;11653;50.848;4.584;2023-08-08T11:42:01;7.70;;;1.67;;
22973;SDS011;11653;50.848;4.584;2023-08-08T11:44:27;4.70;;;1.70;;
22973;SDS011;11653;50.848;4.584;2023-08-08T11:46:52;6.47;;;1.50;;
22973;SDS011;11653;50.848;4.584;2023-08-08T11:49:18;3.03;;;1.47;;
22973;SDS011;11653;50.848;4.584;2023-08-08T11:51:44;2.63;;;1.60;;
22973;SDS011;11653;50.848;4.584;2023-08-08T11:54:10;4.20;;;1.70;;
22973;SDS011;11653;50.848;4.584;2023-08-08T11:56:36;4.27;;;1.53;;
22973;SDS011;11653;50.848;4.584;2023-08-08T11:59:02;2.23;;;1.20;;
22973;SDS011;11653;50.848;4.584;2023-08-08T12:01:28;2.63;;;1.10;;
22973;SDS011;11653;50.848;4.584;2023-08-08T12:03:56;0.80;;;0.80;;
22973;SDS011;11653;50.848;4.584;2023-08-08T12:06:22;2.03;;;1.23;;
22973;SDS011;11653;50.848;4.584;2023-08-08T12:08:53;1.90;;;1.27;;
22973;SDS011;11653;50.848;4.584;2023-08-08T12:11:20;2.33;;;1.03;;
22973;SDS011;11653;50.848;4.584;2023-08-08T12:13:45;3.10;;;1.50;;
22973;SDS011;11653;50.848;4.584;2023-08-08T12:16:12;2.03;;;1.13;;
22973;SDS011;11653;50.848;4.584;2023-08-08T12:18:38;3.57;;;1.77;;
22973;SDS011;11653;50.848;4.584;2023-08-08T12:21:05;2.60;;;1.50;;
22973;SDS011;11653;50.848;4.584;2023-08-08T12:23:32;2.70;;;1.70;;
22973;SDS011;11653;50.848;4.584;2023-08-08T12:25:59;3.57;;;1.60;;
22973;SDS011;11653;50.848;4.584;2023-08-08T12:28:25;4.00;;;1.47;;
22973;SDS011;11653;50.848;4.584;2023-08-08T12:30:51;3.20;;;1.47;;
22973;SDS011;11653;50.848;4.584;2023-08-08T12:33:17;2.60;;;1.30;;
22973;SDS011;11653;50.848;4.584;2023-08-08T12:35:43;3.90;;;1.60;;
22973;SDS011;11653;50.848;4.584;2023-08-08T12:38:08;3.80;;;1.50;;
22973;SDS011;11653;50.848;4.584;2023-08-08T12:40:35;4.60;;;1.50;;
22973;SDS011;11653;50.848;4.584;2023-08-08T12:43:01;5.07;;;1.40;;
22973;SDS011;11653;50.848;4.584;2023-08-08T12:45:26;3.63;;;1.53;;
22973;SDS011;11653;50.848;4.584;2023-08-08T12:47:52;3.17;;;1.73;;
22973;SDS011;11653;50.848;4.584;2023-08-08T12:50:18;5.50;;;1.73;;
22973;SDS011;11653;50.848;4.584;2023-08-08T12:52:43;2.70;;;1.60;;
22973;SDS011;11653;50.848;4.584;2023-08-08T12:55:09;3.40;;;1.60;;
22973;SDS011;11653;50.848;4.584;2023-08-08T12:57:36;5.17;;;1.80;;
22973;SDS011;11653;50.848;4.584;2023-08-08T13:00:03;4.97;;;1.50;;
22973;SDS011;11653;50.848;4.584;2023-08-08T13:02:29;3.07;;;1.60;;
22973;SDS011;11653;50.848;4.584;2023-08-08T13:04:54;2.63;;;1.40;;
22973;SDS011;11653;50.848;4.584;2023-08-08T13:07:20;2.73;;;1.43;;
22973;SDS011;11653;50.848;4.584;2023-08-08T13:09:46;24.23;;;13.13;;
22973;SDS011;11653;50.848;4.584;2023-08-08T13:12:12;4.50;;;2.33;;
22973;SDS011;11653;50.848;4.584;2023-08-08T13:14:37;3.43;;;1.43;;
22973;SDS011;11653;50.848;4.584;2023-08-08T13:17:03;5.73;;;1.70;;
22973;SDS011;11653;50.848;4.584;2023-08-08T13:19:29;4.90;;;1.60;;
22973;SDS011;11653;50.848;4.584;2023-08-08T13:21:55;5.33;;;1.53;;
22973;SDS011;11653;50.848;4.584;2023-08-08T13:24:21;3.00;;;1.60;;
22973;SDS011;11653;50.848;4.584;2023-08-08T13:26:48;3.80;;;1.50;;
22973;SDS011;11653;50.848;4.584;2023-08-08T13:29:17;8.30;;;1.90;;
22973;SDS011;11653;50.848;4.584;2023-08-08T13:31:42;2.00;;;1.17;;
22973;SDS011;11653;50.848;4.584;2023-08-08T13:34:09;6.60;;;1.40;;
22973;SDS011;11653;50.848;4.584;2023-08-08T13:36:35;2.20;;;1.33;;
22973;SDS011;11653;50.848;4.584;2023-08-08T13:39:00;2.23;;;1.37;;
22973;SDS011;11653;50.848;4.584;2023-08-08T13:41:26;1.80;;;1.00;;
22973;SDS011;11653;50.848;4.584;2023-08-08T13:43:52;4.70;;;1.30;;
22973;SDS011;11653;50.848;4.584;2023-08-08T13:46:17;4.60;;;1.20;;
22973;SDS011;11653;50.848;4.584;2023-08-08T13:48:43;3.63;;;1.43;;
22973;SDS011;11653;50.848;4.584;2023-08-08T13:51:09;2.07;;;1.33;;
22973;SDS011;11653;50.848;4.584;2023-08-08T13:53:34;3.23;;;1.53;;
22973;SDS011;11653;50.848;4.584;2023-08-08T13:56:00;2.20;;;1.50;;
22973;SDS011;11653;50.848;4.584;2023-08-08T13:58:26;3.23;;;1.33;;
22973;SDS011;11653;50.848;4.584;2023-08-08T14:00:54;8.73;;;6.47;;
22973;SDS011;11653;50.848;4.584;2023-08-08T14:03:21;8.23;;;3.53;;
22973;SDS011;11653;50.848;4.584;2023-08-08T14:05:48;5.27;;;1.27;;
22973;SDS011;11653;50.848;4.584;2023-08-08T14:08:13;2.07;;;1.17;;
22973;SDS011;11653;50.848;4.584;2023-08-08T14:10:39;1.77;;;1.33;;
22973;SDS011;11653;50.848;4.584;2023-08-08T14:13:05;3.73;;;1.50;;
22973;SDS011;11653;50.848;4.584;2023-08-08T14:15:30;4.33;;;1.93;;
22973;SDS011;11653;50.848;4.584;2023-08-08T14:17:58;4.30;;;1.30;;
22973;SDS011;11653;50.848;4.584;2023-08-08T14:20:24;5.03;;;1.30;;
22973;SDS011;11653;50.848;4.584;2023-08-08T14:22:49;3.33;;;1.37;;
22973;SDS011;11653;50.848;4.584;2023-08-08T14:25:15;3.47;;;2.13;;
22973;SDS011;11653;50.848;4.584;2023-08-08T14:27:41;3.77;;;1.47;;
22973;SDS011;11653;50.848;4.584;2023-08-08T14:30:06;4.20;;;1.20;;
22973;SDS011;11653;50.848;4.584;2023-08-08T14:32:32;2.63;;;1.27;;
22973;SDS011;11653;50.848;4.584;2023-08-08T14:34:58;3.30;;;1.30;;
22973;SDS011;11653;50.848;4.584;2023-08-08T14:37:24;2.93;;;1.30;;
22973;SDS011;11653;50.848;4.584;2023-08-08T14:39:50;1.90;;;1.23;;
22973;SDS011;11653;50.848;4.584;2023-08-08T14:42:16;2.53;;;1.60;;
22973;SDS011;11653;50.848;4.584;2023-08-08T14:44:41;2.43;;;1.10;;
22973;SDS011;11653;50.848;4.584;2023-08-08T14:47:07;6.23;;;1.50;;